Unicom:                    122.8

AWOS:                  118.275 (call in) 814-297-1486

Elevation           1458’ MSL

TPA:                   2500’ MSL

06/24:         5003’ L   75’ W

PAPI:       06/Left     24/Left

(Operate lights on unicom freq.)

Traffic Pattern: Left

Beacon: Sunset to Sunrise

Windsock: yes, lighted

Segmented Circle: No

 

Cleveland Center: 126.72/291.65

FSS: Altoona

[Source: ADDS]
METAR
KFKL 042056Z AUTO 06009KT 10SM CLR 24/M02 A3002 RMK AO2 SLP163 T02391022 58009 =
KFKL 041722Z 0418/0518 03009G16KT P6SM FEW250 FM050000 02011KT P6SM FEW250 FM050300 VRB04KT P6SM SKC FM051200 03003KT P6SM FEW250
TAF
KFKL 041722Z 0418/0518 03009G16KT P6SM FEW250 FM050000 02011KT P6SM FEW250 FM050300 VRB04KT P6SM SKC FM051200 03003KT P6SM FEW250 =
[Source: ADDS]
METAR
KDUJ 042053Z AUTO 36010KT 10SM CLR 24/M01 A3000 RMK AO2 SLP151 T02391011 58010 $ =
KDUJ 041722Z 0418/0518 05012G18KT P6SM FEW250 FM050000 02011KT P6SM SKC FM050400 VRB05KT P6SM SKC FM051400 03006KT P6SM SKC
TAF
KDUJ 041722Z 0418/0518 05012G18KT P6SM FEW250 FM050000 02011KT P6SM SKC FM050400 VRB05KT P6SM SKC FM051400 03006KT P6SM SKC =

Contact

Address:



Hours: 8am - 4pm
Clarion Airport
395 Airport Road
Shippenville, PA 16254
manager@clarionairport.com
Phone:
814-226-9993
Fax:
814-226-4490

Contact Form

Send an Email